Terminal Aerodrome Forecast
Issued by NWS

Home | Current Version | Previous Version | Text Only | Print | Product List | Glossary Off
Versions: 1 2 3 4 5 6 7 8 9 10 11 12 13 14 15 16 17 18 19 20 21 22 23 24 25 26 27 28

000
FTUS43 KABR 101700 AAC
TAFMBG
TAF AMD
KMBG 101706Z 1017/1112 18010KT P6SM VCSH FEW090 BKN120
      TEMPO 1017/1018 -SHRA BKN070 OVC120
     FM101800 15011KT P6SM SCT060 BKN150
     FM110700 VRB06KT P6SM SCT100 SCT250=

USA.gov is the U.S. government's official web portal to all federal, state and local government web resources and services.